Currently 49°F in Temecula, California, USA
49°F
51°F / 47°F
1 mph SW
0.00"
Saturday, March 6, 2021 3:25 AM PST

Temecula, California Weather Summary
Last 36 Hours

Temperature Winds Hourly Humidity Dewpoint
Time Report Norm Report Norm Max Gusts Precip. Rpt. Norm Rpt. Norm Pressure
1Sat 03:25 AM  49.2°F  47°F  1 mph SW  1 mph  7 mph  0.00"  95%  87%  48°F  43°F  30.02"
Sat 03:00 AM  48.3°F  47°F  calm  1 mph  5 mph  0.00"  90%  87%  45°F  43°F  30.03"
3Sat 02:20 AM  46.9°F  48°F  calm  1 mph  4 mph  ----  90%  86%  44°F  44°F  30.03"
Sat 02:00 AM  47.7°F  48°F  calm  1 mph  none  0.00"  89%  85%  45°F  44°F  30.02"
Sat 01:00 AM  49.9°F  49°F  calm  1 mph  1 mph  0.00"  87%  84%  46°F  44°F  30.03"
2Sat 12:00 AM  51.4°F  50°F  calm  1 mph  3 mph  0.00"  83%  82%  46°F  45°F  30.03"
Fri 11:00 PM  53.9°F  51°F  2 mph NE  1 mph  5 mph  0.00"  82%  80%  48°F  45°F  30.04"
Fri 10:00 PM  56.9°F  53°F  calm  2 mph  7 mph  0.00"  73%  78%  48°F  46°F  30.03"
Fri 09:00 PM  58.7°F  54°F  calm  2 mph  8 mph  0.00"  65%  75%  47°F  46°F  30.02"
Fri 08:00 PM  60.9°F  55°F  5 mph S  3 mph  7 mph  0.00"  56%  71%  45°F  46°F  30.01"
Fri 07:00 PM  63.8°F  57°F  calm  3 mph  11 mph  0.00"  52%  67%  45°F  46°F  29.99"
Fri 06:00 PM  68.0°F  60°F  2 mph S  5 mph  12 mph  0.00"  47%  62%  46°F  46°F  29.98"
Fri 05:00 PM  74.6°F  64°F  6 mph S  6 mph  11 mph  0.00"  40%  54%  48°F  46°F  29.97"
Fri 04:00 PM  74.4°F  66°F  2 mph SW  7 mph  13 mph  0.00"  39%  50%  47°F  47°F  29.97"
Fri 03:00 PM  76.1°F  67°F  8 mph S  7 mph  16 mph  0.00"  38%  47%  48°F  46°F  29.98"
Fri 02:00 PM  77.0°F  68°F  6 mph SW  7 mph  16 mph  0.00"  39%  47%  49°F  46°F  29.98"
Fri 01:00 PM  77.7°F  67°F  7 mph W  6 mph  11 mph  0.00"  32%  47%  45°F  45°F  30.03"
Fri 12:00 PM  75.4°F  65°F  1 mph NE  5 mph  10 mph  0.00"  33%  50%  43°F  45°F  30.09"
Fri 11:00 AM  71.9°F  62°F  7 mph W  4 mph  11 mph  0.00"  42%  57%  47°F  46°F  30.12"
Fri 10:00 AM  62.9°F  58°F  4 mph W  4 mph  9 mph  0.00"  64%  68%  50°F  47°F  30.14"
Fri 09:00 AM  55.1°F  52°F  3 mph W  2 mph  8 mph  0.00"  78%  78%  48°F  46°F  30.17"
Fri 08:00 AM  47.4°F  48°F  5 mph W  2 mph  6 mph  0.00"  92%  87%  45°F  44°F  30.19"
Fri 07:00 AM  43.1°F  45°F  4 mph W  1 mph  5 mph  0.00"  96%  90%  42°F  42°F  30.19"
Fri 06:00 AM  42.3°F  45°F  calm  1 mph  none  0.00"  95%  89%  41°F  42°F  30.18"
Fri 05:00 AM  44.2°F  46°F  calm  1 mph  none  0.00"  94%  88%  43°F  43°F  30.18"
Fri 04:00 AM  44.7°F  47°F  calm  1 mph  5 mph  0.00"  90%  88%  42°F  43°F  30.19"
Fri 03:00 AM  46.4°F  47°F  calm  1 mph  4 mph  0.00"  88%  87%  43°F  43°F  30.18"
Fri 02:00 AM  47.9°F  48°F  calm  1 mph  9 mph  0.00"  83%  86%  43°F  44°F  30.19"
Fri 01:00 AM  49.5°F  49°F  6 mph SW  1 mph  9 mph  0.00"  81%  84%  44°F  44°F  30.20"
Fri 12:00 AM  51.0°F  50°F  6 mph NE  1 mph  8 mph  0.00"  80%  82%  45°F  45°F  30.22"
Thu 11:00 PM  51.4°F  51°F  3 mph NW  2 mph  6 mph  0.00"  84%  80%  46°F  45°F  30.23"
Thu 10:00 PM  51.3°F  52°F  calm  2 mph  none  0.00"  92%  78%  49°F  45°F  30.24"
Thu 09:00 PM  54.0°F  53°F  calm  2 mph  none  0.00"  89%  75%  51°F  46°F  30.24"
Thu 08:00 PM  56.4°F  55°F  calm  3 mph  5 mph  0.00"  85%  72%  52°F  46°F  30.23"
Thu 07:00 PM  59.0°F  57°F  calm  3 mph  4 mph  0.00"  79%  68%  52°F  46°F  30.20"
Thu 06:00 PM  62.9°F  59°F  2 mph SW  5 mph  5 mph  0.00"  69%  63%  52°F  46°F  30.19"
Thu 05:00 PM  66.9°F  63°F  1 mph E  6 mph  10 mph  0.00"  63%  55%  53°F  46°F  30.18"
Thu 04:00 PM  65.8°F  65°F  4 mph SW  7 mph  15 mph  0.00"  63%  51%  52°F  46°F  30.18"

  1. Current weather data. No green row appears if the current weather data is also the high or low for the current day.
  2. High temperature for the current day.
  3. Low temperature for the current day.

The Temecula weather pages are a service of WeatherCurrents. Temecula, California is located in the Temecula Valley, in southwestern Riverside County, along the Interstate 15 highway. The Temecula Valley's rolling hills are home to the Temecula wine country, vineyards, golf courses, a casino resort, and Old Town Temecula.
Copyright ©2021  WeatherCurrents. All rights reserved. - Submit questions and comments - Privacy Policy

This page automatically refreshes every 10 minutes.